sensor_id;sensor_type;location;lat;lon;timestamp;P1;durP1;ratioP1;P2;durP2;ratioP2
20910;SDS011;10615;42.702;23.314;2023-07-31T00:00:17;3.53;;;3.22;;
20910;SDS011;10615;42.702;23.314;2023-07-31T00:01:18;3.30;;;2.97;;
20910;SDS011;10615;42.702;23.314;2023-07-31T00:02:19;3.60;;;3.22;;
20910;SDS011;10615;42.702;23.314;2023-07-31T00:03:19;3.60;;;3.10;;
20910;SDS011;10615;42.702;23.314;2023-07-31T00:04:20;3.55;;;2.78;;
20910;SDS011;10615;42.702;23.314;2023-07-31T00:05:21;3.35;;;3.05;;
20910;SDS011;10615;42.702;23.314;2023-07-31T00:06:21;3.22;;;2.92;;
20910;SDS011;10615;42.702;23.314;2023-07-31T00:07:22;4.03;;;3.08;;
20910;SDS011;10615;42.702;23.314;2023-07-31T00:08:23;3.28;;;2.97;;
20910;SDS011;10615;42.702;23.314;2023-07-31T00:09:23;3.35;;;2.85;;
20910;SDS011;10615;42.702;23.314;2023-07-31T00:10:24;3.65;;;3.00;;
20910;SDS011;10615;42.702;23.314;2023-07-31T00:11:25;6.18;;;2.90;;
20910;SDS011;10615;42.702;23.314;2023-07-31T00:12:25;3.40;;;3.10;;
20910;SDS011;10615;42.702;23.314;2023-07-31T00:13:26;3.15;;;2.85;;
20910;SDS011;10615;42.702;23.314;2023-07-31T00:14:27;3.28;;;2.90;;
20910;SDS011;10615;42.702;23.314;2023-07-31T00:15:27;3.25;;;2.95;;
20910;SDS011;10615;42.702;23.314;2023-07-31T00:16:28;4.45;;;3.05;;
20910;SDS011;10615;42.702;23.314;2023-07-31T00:17:29;4.75;;;3.17;;
20910;SDS011;10615;42.702;23.314;2023-07-31T00:18:30;3.80;;;3.08;;
20910;SDS011;10615;42.702;23.314;2023-07-31T00:19:31;3.35;;;3.00;;
20910;SDS011;10615;42.702;23.314;2023-07-31T00:20:31;3.30;;;3.00;;
20910;SDS011;10615;42.702;23.314;2023-07-31T00:21:32;4.60;;;3.20;;
20910;SDS011;10615;42.702;23.314;2023-07-31T00:22:33;4.78;;;3.40;;
20910;SDS011;10615;42.702;23.314;2023-07-31T00:23:34;3.40;;;3.08;;
20910;SDS011;10615;42.702;23.314;2023-07-31T00:24:34;3.15;;;2.88;;
20910;SDS011;10615;42.702;23.314;2023-07-31T00:25:35;3.88;;;2.97;;
20910;SDS011;10615;42.702;23.314;2023-07-31T00:26:36;3.60;;;2.92;;
20910;SDS011;10615;42.702;23.314;2023-07-31T00:27:36;3.35;;;2.80;;
20910;SDS011;10615;42.702;23.314;2023-07-31T00:28:37;4.03;;;3.20;;
20910;SDS011;10615;42.702;23.314;2023-07-31T00:29:38;3.75;;;3.40;;
20910;SDS011;10615;42.702;23.314;2023-07-31T00:30:39;4.32;;;3.25;;
20910;SDS011;10615;42.702;23.314;2023-07-31T00:31:39;4.47;;;3.30;;
20910;SDS011;10615;42.702;23.314;2023-07-31T00:32:40;3.83;;;3.30;;
20910;SDS011;10615;42.702;23.314;2023-07-31T00:33:41;4.05;;;3.10;;
20910;SDS011;10615;42.702;23.314;2023-07-31T00:34:41;3.88;;;3.58;;
20910;SDS011;10615;42.702;23.314;2023-07-31T00:35:42;4.68;;;3.45;;
20910;SDS011;10615;42.702;23.314;2023-07-31T00:36:43;3.70;;;3.40;;
20910;SDS011;10615;42.702;23.314;2023-07-31T00:37:43;3.87;;;3.40;;
20910;SDS011;10615;42.702;23.314;2023-07-31T00:38:44;3.55;;;3.25;;
20910;SDS011;10615;42.702;23.314;2023-07-31T00:39:45;5.05;;;3.28;;
20910;SDS011;10615;42.702;23.314;2023-07-31T00:40:46;3.67;;;3.38;;
20910;SDS011;10615;42.702;23.314;2023-07-31T00:41:46;3.95;;;3.55;;
20910;SDS011;10615;42.702;23.314;2023-07-31T00:42:47;4.70;;;3.67;;
20910;SDS011;10615;42.702;23.314;2023-07-31T00:43:48;3.22;;;2.95;;
20910;SDS011;10615;42.702;23.314;2023-07-31T00:44:48;4.10;;;3.70;;
20910;SDS011;10615;42.702;23.314;2023-07-31T00:45:49;3.67;;;3.30;;
20910;SDS011;10615;42.702;23.314;2023-07-31T00:46:50;3.67;;;3.38;;
20910;SDS011;10615;42.702;23.314;2023-07-31T00:47:51;4.78;;;3.72;;
20910;SDS011;10615;42.702;23.314;2023-07-31T00:48:52;4.10;;;3.70;;
20910;SDS011;10615;42.702;23.314;2023-07-31T00:49:52;4.88;;;4.25;;
20910;SDS011;10615;42.702;23.314;2023-07-31T00:50:53;4.35;;;3.95;;
20910;SDS011;10615;42.702;23.314;2023-07-31T00:51:54;4.40;;;4.05;;
20910;SDS011;10615;42.702;23.314;2023-07-31T00:52:57;4.72;;;4.20;;
20910;SDS011;10615;42.702;23.314;2023-07-31T00:53:58;5.20;;;4.07;;
20910;SDS011;10615;42.702;23.314;2023-07-31T00:54:59;5.18;;;4.18;;
20910;SDS011;10615;42.702;23.314;2023-07-31T00:56:00;4.78;;;4.38;;
20910;SDS011;10615;42.702;23.314;2023-07-31T00:57:01;4.90;;;4.25;;
20910;SDS011;10615;42.702;23.314;2023-07-31T00:58:03;5.15;;;4.70;;
20910;SDS011;10615;42.702;23.314;2023-07-31T00:59:03;5.60;;;5.10;;
20910;SDS011;10615;42.702;23.314;2023-07-31T01:00:04;5.80;;;5.30;;
20910;SDS011;10615;42.702;23.314;2023-07-31T01:01:05;5.85;;;5.35;;
20910;SDS011;10615;42.702;23.314;2023-07-31T01:02:06;6.53;;;5.32;;
20910;SDS011;10615;42.702;23.314;2023-07-31T01:03:07;5.72;;;5.22;;
20910;SDS011;10615;42.702;23.314;2023-07-31T01:04:07;6.85;;;6.15;;
20910;SDS011;10615;42.702;23.314;2023-07-31T01:05:08;7.10;;;6.43;;
20910;SDS011;10615;42.702;23.314;2023-07-31T01:06:17;7.00;;;6.30;;
20910;SDS011;10615;42.702;23.314;2023-07-31T01:07:35;7.18;;;6.47;;
20910;SDS011;10615;42.702;23.314;2023-07-31T01:10:02;7.53;;;6.88;;
20910;SDS011;10615;42.702;23.314;2023-07-31T01:11:48;8.40;;;7.30;;
20910;SDS011;10615;42.702;23.314;2023-07-31T01:12:33;8.52;;;7.72;;
20910;SDS011;10615;42.702;23.314;2023-07-31T01:13:35;8.40;;;7.60;;
20910;SDS011;10615;42.702;23.314;2023-07-31T01:14:36;8.60;;;7.80;;
20910;SDS011;10615;42.702;23.314;2023-07-31T01:15:36;7.93;;;7.13;;
20910;SDS011;10615;42.702;23.314;2023-07-31T01:16:37;9.35;;;7.78;;
20910;SDS011;10615;42.702;23.314;2023-07-31T01:17:38;8.60;;;7.80;;
20910;SDS011;10615;42.702;23.314;2023-07-31T01:18:39;8.88;;;8.07;;
20910;SDS011;10615;42.702;23.314;2023-07-31T01:19:40;9.07;;;8.10;;
20910;SDS011;10615;42.702;23.314;2023-07-31T01:20:41;10.48;;;9.48;;
20910;SDS011;10615;42.702;23.314;2023-07-31T01:26:19;10.05;;;9.13;;
20910;SDS011;10615;42.702;23.314;2023-07-31T01:27:27;10.75;;;9.75;;
20910;SDS011;10615;42.702;23.314;2023-07-31T01:31:04;11.90;;;10.18;;
20910;SDS011;10615;42.702;23.314;2023-07-31T01:32:10;11.18;;;10.07;;
20910;SDS011;10615;42.702;23.314;2023-07-31T01:33:12;12.18;;;11.05;;
20910;SDS011;10615;42.702;23.314;2023-07-31T01:34:13;12.32;;;11.13;;
20910;SDS011;10615;42.702;23.314;2023-07-31T01:35:17;12.18;;;11.07;;
20910;SDS011;10615;42.702;23.314;2023-07-31T01:36:18;11.23;;;10.02;;
20910;SDS011;10615;42.702;23.314;2023-07-31T01:37:19;12.68;;;11.38;;
20910;SDS011;10615;42.702;23.314;2023-07-31T01:38:20;12.73;;;11.50;;
20910;SDS011;10615;42.702;23.314;2023-07-31T01:39:22;12.27;;;11.15;;
20910;SDS011;10615;42.702;23.314;2023-07-31T01:40:22;13.20;;;11.90;;
20910;SDS011;10615;42.702;23.314;2023-07-31T01:41:23;12.95;;;11.65;;
20910;SDS011;10615;42.702;23.314;2023-07-31T01:42:24;13.32;;;12.07;;
20910;SDS011;10615;42.702;23.314;2023-07-31T01:43:24;14.15;;;12.93;;
20910;SDS011;10615;42.702;23.314;2023-07-31T01:44:25;13.48;;;12.18;;
20910;SDS011;10615;42.702;23.314;2023-07-31T01:45:26;14.35;;;12.95;;
20910;SDS011;10615;42.702;23.314;2023-07-31T01:46:26;14.93;;;13.52;;
20910;SDS011;10615;42.702;23.314;2023-07-31T01:47:27;15.20;;;13.07;;
20910;SDS011;10615;42.702;23.314;2023-07-31T01:48:28;15.05;;;13.55;;
20910;SDS011;10615;42.702;23.314;2023-07-31T01:49:28;15.48;;;13.93;;
20910;SDS011;10615;42.702;23.314;2023-07-31T01:50:29;15.18;;;13.77;;
20910;SDS011;10615;42.702;23.314;2023-07-31T01:51:30;16.20;;;14.60;;
20910;SDS011;10615;42.702;23.314;2023-07-31T01:52:33;15.50;;;14.07;;
20910;SDS011;10615;42.702;23.314;2023-07-31T01:53:34;16.30;;;14.70;;
20910;SDS011;10615;42.702;23.314;2023-07-31T01:54:35;16.80;;;15.20;;
20910;SDS011;10615;42.702;23.314;2023-07-31T01:55:36;15.60;;;14.23;;
20910;SDS011;10615;42.702;23.314;2023-07-31T01:56:37;17.02;;;15.38;;
20910;SDS011;10615;42.702;23.314;2023-07-31T01:57:38;16.42;;;14.82;;
20910;SDS011;10615;42.702;23.314;2023-07-31T01:58:38;16.33;;;14.85;;
20910;SDS011;10615;42.702;23.314;2023-07-31T01:59:39;17.50;;;15.80;;
20910;SDS011;10615;42.702;23.314;2023-07-31T02:00:40;17.05;;;15.45;;
20910;SDS011;10615;42.702;23.314;2023-07-31T02:01:40;16.83;;;15.23;;
20910;SDS011;10615;42.702;23.314;2023-07-31T02:02:41;17.50;;;15.82;;
20910;SDS011;10615;42.702;23.314;2023-07-31T02:03:42;17.42;;;15.80;;
20910;SDS011;10615;42.702;23.314;2023-07-31T02:04:42;16.95;;;15.35;;
20910;SDS011;10615;42.702;23.314;2023-07-31T02:05:44;17.80;;;16.10;;
20910;SDS011;10615;42.702;23.314;2023-07-31T02:06:45;17.38;;;15.68;;
20910;SDS011;10615;42.702;23.314;2023-07-31T02:07:46;17.90;;;16.23;;
20910;SDS011;10615;42.702;23.314;2023-07-31T02:08:47;18.65;;;16.77;;
20910;SDS011;10615;42.702;23.314;2023-07-31T02:09:47;18.20;;;16.50;;
20910;SDS011;10615;42.702;23.314;2023-07-31T02:10:48;18.27;;;16.38;;
20910;SDS011;10615;42.702;23.314;2023-07-31T02:11:49;18.08;;;16.30;;
20910;SDS011;10615;42.702;23.314;2023-07-31T02:12:49;17.13;;;15.52;;
20910;SDS011;10615;42.702;23.314;2023-07-31T02:13:50;17.67;;;15.93;;
20910;SDS011;10615;42.702;23.314;2023-07-31T02:14:51;18.02;;;16.30;;
20910;SDS011;10615;42.702;23.314;2023-07-31T02:15:51;18.95;;;17.15;;
20910;SDS011;10615;42.702;23.314;2023-07-31T02:16:52;18.65;;;16.95;;
20910;SDS011;10615;42.702;23.314;2023-07-31T02:17:53;18.25;;;16.55;;
20910;SDS011;10615;42.702;23.314;2023-07-31T02:18:53;19.25;;;17.35;;
20910;SDS011;10615;42.702;23.314;2023-07-31T02:19:54;18.50;;;16.80;;
20910;SDS011;10615;42.702;23.314;2023-07-31T02:20:55;18.55;;;16.75;;
20910;SDS011;10615;42.702;23.314;2023-07-31T02:21:56;18.73;;;16.92;;
20910;SDS011;10615;42.702;23.314;2023-07-31T02:22:57;17.92;;;16.23;;
20910;SDS011;10615;42.702;23.314;2023-07-31T02:23:57;19.05;;;17.15;;
20910;SDS011;10615;42.702;23.314;2023-07-31T02:24:58;18.73;;;17.02;;
20910;SDS011;10615;42.702;23.314;2023-07-31T02:25:58;19.38;;;17.50;;
20910;SDS011;10615;42.702;23.314;2023-07-31T02:26:59;19.00;;;17.13;;
20910;SDS011;10615;42.702;23.314;2023-07-31T02:28:00;19.50;;;17.67;;
20910;SDS011;10615;42.702;23.314;2023-07-31T02:29:00;20.02;;;18.10;;
20910;SDS011;10615;42.702;23.314;2023-07-31T02:30:01;19.48;;;17.58;;
20910;SDS011;10615;42.702;23.314;2023-07-31T02:31:02;19.33;;;17.52;;
20910;SDS011;10615;42.702;23.314;2023-07-31T02:32:03;20.25;;;18.15;;
20910;SDS011;10615;42.702;23.314;2023-07-31T02:33:04;19.58;;;17.67;;
20910;SDS011;10615;42.702;23.314;2023-07-31T02:34:05;18.17;;;16.42;;
20910;SDS011;10615;42.702;23.314;2023-07-31T02:35:06;19.90;;;18.00;;
20910;SDS011;10615;42.702;23.314;2023-07-31T02:36:07;25.17;;;18.85;;
20910;SDS011;10615;42.702;23.314;2023-07-31T02:37:08;20.63;;;18.52;;
20910;SDS011;10615;42.702;23.314;2023-07-31T02:38:08;18.33;;;16.52;;
20910;SDS011;10615;42.702;23.314;2023-07-31T02:39:09;19.90;;;18.10;;
20910;SDS011;10615;42.702;23.314;2023-07-31T02:40:10;20.48;;;18.48;;
20910;SDS011;10615;42.702;23.314;2023-07-31T02:41:11;20.33;;;18.33;;
20910;SDS011;10615;42.702;23.314;2023-07-31T02:42:12;21.55;;;19.45;;
20910;SDS011;10615;42.702;23.314;2023-07-31T02:43:13;19.20;;;17.45;;
20910;SDS011;10615;42.702;23.314;2023-07-31T02:44:14;20.52;;;18.55;;
20910;SDS011;10615;42.702;23.314;2023-07-31T02:45:14;20.55;;;18.65;;
20910;SDS011;10615;42.702;23.314;2023-07-31T02:46:15;20.38;;;18.35;;
20910;SDS011;10615;42.702;23.314;2023-07-31T02:47:16;20.38;;;18.48;;
20910;SDS011;10615;42.702;23.314;2023-07-31T02:48:16;20.42;;;18.40;;
20910;SDS011;10615;42.702;23.314;2023-07-31T02:49:17;20.45;;;18.40;;
20910;SDS011;10615;42.702;23.314;2023-07-31T02:50:18;21.38;;;19.40;;
20910;SDS011;10615;42.702;23.314;2023-07-31T02:51:18;20.20;;;18.30;;
20910;SDS011;10615;42.702;23.314;2023-07-31T02:52:21;19.42;;;17.63;;
20910;SDS011;10615;42.702;23.314;2023-07-31T02:53:22;20.00;;;18.10;;
20910;SDS011;10615;42.702;23.314;2023-07-31T02:54:23;20.95;;;18.85;;
20910;SDS011;10615;42.702;23.314;2023-07-31T02:55:23;19.77;;;17.98;;
20910;SDS011;10615;42.702;23.314;2023-07-31T02:56:24;20.40;;;18.50;;
20910;SDS011;10615;42.702;23.314;2023-07-31T02:57:25;19.33;;;17.58;;
20910;SDS011;10615;42.702;23.314;2023-07-31T02:58:25;20.73;;;18.63;;
20910;SDS011;10615;42.702;23.314;2023-07-31T02:59:27;20.23;;;18.30;;
20910;SDS011;10615;42.702;23.314;2023-07-31T03:00:28;22.00;;;18.65;;
20910;SDS011;10615;42.702;23.314;2023-07-31T03:01:28;20.85;;;18.63;;
20910;SDS011;10615;42.702;23.314;2023-07-31T03:02:29;20.42;;;18.42;;
20910;SDS011;10615;42.702;23.314;2023-07-31T03:03:30;20.23;;;18.27;;
20910;SDS011;10615;42.702;23.314;2023-07-31T03:04:30;21.25;;;19.05;;
20910;SDS011;10615;42.702;23.314;2023-07-31T03:05:31;20.63;;;18.52;;
20910;SDS011;10615;42.702;23.314;2023-07-31T03:06:32;20.88;;;18.85;;
20910;SDS011;10615;42.702;23.314;2023-07-31T03:07:32;20.38;;;18.48;;
20910;SDS011;10615;42.702;23.314;2023-07-31T03:08:33;20.75;;;18.70;;
20910;SDS011;10615;42.702;23.314;2023-07-31T03:09:34;20.77;;;18.85;;
20910;SDS011;10615;42.702;23.314;2023-07-31T03:10:34;20.45;;;18.35;;
20910;SDS011;10615;42.702;23.314;2023-07-31T03:11:35;19.45;;;17.55;;
20910;SDS011;10615;42.702;23.314;2023-07-31T03:12:35;20.83;;;18.73;;
20910;SDS011;10615;42.702;23.314;2023-07-31T03:13:36;21.70;;;19.52;;
20910;SDS011;10615;42.702;23.314;2023-07-31T03:14:37;21.40;;;19.40;;
20910;SDS011;10615;42.702;23.314;2023-07-31T03:15:37;20.50;;;18.40;;
20910;SDS011;10615;42.702;23.314;2023-07-31T03:16:38;20.80;;;18.70;;
20910;SDS011;10615;42.702;23.314;2023-07-31T03:17:39;21.23;;;19.17;;
20910;SDS011;10615;42.702;23.314;2023-07-31T03:18:39;20.10;;;18.25;;
20910;SDS011;10615;42.702;23.314;2023-07-31T03:19:40;20.30;;;18.05;;
20910;SDS011;10615;42.702;23.314;2023-07-31T03:20:43;19.92;;;18.13;;
20910;SDS011;10615;42.702;23.314;2023-07-31T03:21:45;20.45;;;18.48;;
20910;SDS011;10615;42.702;23.314;2023-07-31T03:22:45;21.02;;;19.02;;
20910;SDS011;10615;42.702;23.314;2023-07-31T03:23:46;21.58;;;19.35;;
20910;SDS011;10615;42.702;23.314;2023-07-31T03:24:46;21.05;;;18.95;;
20910;SDS011;10615;42.702;23.314;2023-07-31T03:25:56;20.92;;;18.95;;
20910;SDS011;10615;42.702;23.314;2023-07-31T03:27:03;19.58;;;17.70;;
20910;SDS011;10615;42.702;23.314;2023-07-31T03:28:04;20.92;;;18.90;;
20910;SDS011;10615;42.702;23.314;2023-07-31T03:29:04;21.02;;;19.02;;
20910;SDS011;10615;42.702;23.314;2023-07-31T03:30:05;20.98;;;18.98;;
20910;SDS011;10615;42.702;23.314;2023-07-31T03:31:06;21.75;;;19.58;;
20910;SDS011;10615;42.702;23.314;2023-07-31T03:32:08;20.88;;;18.88;;
20910;SDS011;10615;42.702;23.314;2023-07-31T03:33:09;21.17;;;19.08;;
20910;SDS011;10615;42.702;23.314;2023-07-31T03:34:09;20.63;;;18.80;;
20910;SDS011;10615;42.702;23.314;2023-07-31T03:35:10;21.58;;;19.48;;
20910;SDS011;10615;42.702;23.314;2023-07-31T03:36:11;21.83;;;19.55;;
20910;SDS011;10615;42.702;23.314;2023-07-31T03:37:12;21.13;;;18.92;;
20910;SDS011;10615;42.702;23.314;2023-07-31T03:38:12;20.88;;;18.90;;
20910;SDS011;10615;42.702;23.314;2023-07-31T03:39:13;20.50;;;18.50;;
20910;SDS011;10615;42.702;23.314;2023-07-31T03:40:14;20.60;;;18.42;;
20910;SDS011;10615;42.702;23.314;2023-07-31T03:41:15;21.35;;;19.25;;
20910;SDS011;10615;42.702;23.314;2023-07-31T03:42:15;21.33;;;19.33;;
20910;SDS011;10615;42.702;23.314;2023-07-31T03:43:16;24.08;;;19.52;;
20910;SDS011;10615;42.702;23.314;2023-07-31T03:44:17;23.52;;;21.13;;
20910;SDS011;10615;42.702;23.314;2023-07-31T03:45:17;29.05;;;26.13;;
20910;SDS011;10615;42.702;23.314;2023-07-31T03:46:18;25.50;;;22.15;;
20910;SDS011;10615;42.702;23.314;2023-07-31T03:47:19;21.25;;;19.15;;
20910;SDS011;10615;42.702;23.314;2023-07-31T03:48:20;21.70;;;19.23;;
20910;SDS011;10615;42.702;23.314;2023-07-31T03:49:20;21.83;;;19.65;;
20910;SDS011;10615;42.702;23.314;2023-07-31T03:50:21;21.70;;;19.63;;
20910;SDS011;10615;42.702;23.314;2023-07-31T03:51:22;22.33;;;20.05;;
20910;SDS011;10615;42.702;23.314;2023-07-31T03:52:23;21.30;;;19.25;;
20910;SDS011;10615;42.702;23.314;2023-07-31T03:53:23;22.00;;;19.70;;
20910;SDS011;10615;42.702;23.314;2023-07-31T03:54:24;23.48;;;19.15;;
20910;SDS011;10615;42.702;23.314;2023-07-31T03:55:25;21.13;;;18.92;;
20910;SDS011;10615;42.702;23.314;2023-07-31T03:56:25;22.50;;;20.20;;
20910;SDS011;10615;42.702;23.314;2023-07-31T03:57:26;22.80;;;20.45;;
20910;SDS011;10615;42.702;23.314;2023-07-31T03:58:27;22.58;;;20.48;;
20910;SDS011;10615;42.702;23.314;2023-07-31T03:59:27;22.25;;;20.02;;
20910;SDS011;10615;42.702;23.314;2023-07-31T04:00:28;21.77;;;19.67;;
20910;SDS011;10615;42.702;23.314;2023-07-31T04:01:29;22.33;;;20.10;;
20910;SDS011;10615;42.702;23.314;2023-07-31T04:02:29;22.45;;;20.23;;
20910;SDS011;10615;42.702;23.314;2023-07-31T04:03:30;22.45;;;20.25;;
20910;SDS011;10615;42.702;23.314;2023-07-31T04:04:31;23.45;;;21.10;;
20910;SDS011;10615;42.702;23.314;2023-07-31T04:05:32;22.75;;;20.35;;
20910;SDS011;10615;42.702;23.314;2023-07-31T04:06:32;22.52;;;20.30;;
20910;SDS011;10615;42.702;23.314;2023-07-31T04:07:33;22.08;;;19.88;;
20910;SDS011;10615;42.702;23.314;2023-07-31T04:08:34;22.92;;;19.98;;
20910;SDS011;10615;42.702;23.314;2023-07-31T04:09:34;24.52;;;22.02;;
20910;SDS011;10615;42.702;23.314;2023-07-31T04:10:35;23.17;;;20.83;;
20910;SDS011;10615;42.702;23.314;2023-07-31T04:11:36;23.52;;;21.20;;
20910;SDS011;10615;42.702;23.314;2023-07-31T04:12:37;24.02;;;21.63;;
20910;SDS011;10615;42.702;23.314;2023-07-31T04:13:37;24.25;;;21.85;;
20910;SDS011;10615;42.702;23.314;2023-07-31T04:14:38;24.80;;;22.17;;
20910;SDS011;10615;42.702;23.314;2023-07-31T04:15:39;24.20;;;21.88;;
20910;SDS011;10615;42.702;23.314;2023-07-31T04:16:40;24.60;;;22.00;;
20910;SDS011;10615;42.702;23.314;2023-07-31T04:17:41;25.02;;;22.40;;
20910;SDS011;10615;42.702;23.314;2023-07-31T04:18:42;26.15;;;22.15;;
20910;SDS011;10615;42.702;23.314;2023-07-31T04:19:42;24.25;;;21.77;;
20910;SDS011;10615;42.702;23.314;2023-07-31T04:20:43;23.50;;;20.98;;
20910;SDS011;10615;42.702;23.314;2023-07-31T04:21:44;24.27;;;21.88;;
20910;SDS011;10615;42.702;23.314;2023-07-31T04:22:44;24.75;;;22.25;;
20910;SDS011;10615;42.702;23.314;2023-07-31T04:23:45;23.63;;;21.23;;
20910;SDS011;10615;42.702;23.314;2023-07-31T04:24:46;24.30;;;21.88;;
20910;SDS011;10615;42.702;23.314;2023-07-31T04:25:47;24.90;;;22.42;;
20910;SDS011;10615;42.702;23.314;2023-07-31T04:26:47;24.48;;;21.90;;
20910;SDS011;10615;42.702;23.314;2023-07-31T04:27:48;24.52;;;22.02;;
20910;SDS011;10615;42.702;23.314;2023-07-31T04:28:49;24.45;;;21.90;;
20910;SDS011;10615;42.702;23.314;2023-07-31T04:29:49;24.13;;;21.55;;
20910;SDS011;10615;42.702;23.314;2023-07-31T04:30:51;24.40;;;21.80;;
20910;SDS011;10615;42.702;23.314;2023-07-31T04:31:51;23.65;;;21.25;;
20910;SDS011;10615;42.702;23.314;2023-07-31T04:32:52;29.10;;;21.60;;
20910;SDS011;10615;42.702;23.314;2023-07-31T04:33:53;23.50;;;21.10;;
20910;SDS011;10615;42.702;23.314;2023-07-31T04:34:53;24.02;;;21.52;;
20910;SDS011;10615;42.702;23.314;2023-07-31T04:35:54;24.25;;;21.73;;
20910;SDS011;10615;42.702;23.314;2023-07-31T04:36:55;23.33;;;21.02;;
20910;SDS011;10615;42.702;23.314;2023-07-31T04:37:56;23.92;;;21.52;;
20910;SDS011;10615;42.702;23.314;2023-07-31T04:38:56;25.05;;;21.42;;
20910;SDS011;10615;42.702;23.314;2023-07-31T04:39:57;26.45;;;21.60;;
20910;SDS011;10615;42.702;23.314;2023-07-31T04:40:58;24.42;;;21.92;;
20910;SDS011;10615;42.702;23.314;2023-07-31T04:41:58;23.80;;;21.35;;
20910;SDS011;10615;42.702;23.314;2023-07-31T04:42:59;23.27;;;20.90;;
20910;SDS011;10615;42.702;23.314;2023-07-31T04:44:00;26.10;;;20.77;;
20910;SDS011;10615;42.702;23.314;2023-07-31T04:45:01;22.65;;;20.20;;
20910;SDS011;10615;42.702;23.314;2023-07-31T04:46:02;22.90;;;20.60;;
20910;SDS011;10615;42.702;23.314;2023-07-31T04:47:02;23.08;;;20.67;;
20910;SDS011;10615;42.702;23.314;2023-07-31T04:48:03;22.65;;;20.27;;
20910;SDS011;10615;42.702;23.314;2023-07-31T04:49:04;22.17;;;19.83;;
20910;SDS011;10615;42.702;23.314;2023-07-31T04:50:05;23.90;;;21.40;;
20910;SDS011;10615;42.702;23.314;2023-07-31T04:51:06;22.35;;;20.15;;
20910;SDS011;10615;42.702;23.314;2023-07-31T04:52:07;21.95;;;19.63;;
20910;SDS011;10615;42.702;23.314;2023-07-31T04:53:07;23.70;;;20.23;;
20910;SDS011;10615;42.702;23.314;2023-07-31T04:54:08;22.67;;;20.38;;
20910;SDS011;10615;42.702;23.314;2023-07-31T04:55:09;21.50;;;19.40;;
20910;SDS011;10615;42.702;23.314;2023-07-31T04:56:09;22.02;;;19.77;;
20910;SDS011;10615;42.702;23.314;2023-07-31T04:57:10;21.10;;;18.88;;
20910;SDS011;10615;42.702;23.314;2023-07-31T04:58:10;21.30;;;19.20;;
20910;SDS011;10615;42.702;23.314;2023-07-31T04:59:11;20.35;;;18.40;;
20910;SDS011;10615;42.702;23.314;2023-07-31T05:00:12;21.75;;;19.65;;
20910;SDS011;10615;42.702;23.314;2023-07-31T05:01:12;21.23;;;19.02;;
20910;SDS011;10615;42.702;23.314;2023-07-31T05:02:13;20.75;;;18.67;;
20910;SDS011;10615;42.702;23.314;2023-07-31T05:03:14;19.77;;;17.88;;
20910;SDS011;10615;42.702;23.314;2023-07-31T05:04:15;19.77;;;17.77;;
20910;SDS011;10615;42.702;23.314;2023-07-31T05:05:15;19.33;;;17.38;;
20910;SDS011;10615;42.702;23.314;2023-07-31T05:06:16;18.10;;;16.17;;
20910;SDS011;10615;42.702;23.314;2023-07-31T05:07:17;18.70;;;16.90;;
20910;SDS011;10615;42.702;23.314;2023-07-31T05:08:17;16.90;;;15.38;;
20910;SDS011;10615;42.702;23.314;2023-07-31T05:09:18;17.33;;;15.82;;
20910;SDS011;10615;42.702;23.314;2023-07-31T05:10:19;18.52;;;16.73;;
20910;SDS011;10615;42.702;23.314;2023-07-31T05:11:20;18.00;;;16.38;;
20910;SDS011;10615;42.702;23.314;2023-07-31T05:12:20;17.75;;;15.98;;
20910;SDS011;10615;42.702;23.314;2023-07-31T05:13:21;16.75;;;15.10;;
20910;SDS011;10615;42.702;23.314;2023-07-31T05:14:22;17.67;;;15.85;;
20910;SDS011;10615;42.702;23.314;2023-07-31T05:15:22;15.45;;;14.15;;
20910;SDS011;10615;42.702;23.314;2023-07-31T05:16:23;16.50;;;14.90;;
20910;SDS011;10615;42.702;23.314;2023-07-31T05:17:24;15.93;;;14.43;;
20910;SDS011;10615;42.702;23.314;2023-07-31T05:18:24;19.70;;;14.85;;
20910;SDS011;10615;42.702;23.314;2023-07-31T05:19:25;16.88;;;15.32;;
20910;SDS011;10615;42.702;23.314;2023-07-31T05:20:26;16.88;;;14.98;;
20910;SDS011;10615;42.702;23.314;2023-07-31T05:21:27;15.93;;;14.32;;
20910;SDS011;10615;42.702;23.314;2023-07-31T05:22:28;15.40;;;13.80;;
20910;SDS011;10615;42.702;23.314;2023-07-31T05:23:29;15.40;;;14.00;;
20910;SDS011;10615;42.702;23.314;2023-07-31T05:24:31;15.45;;;13.95;;
20910;SDS011;10615;42.702;23.314;2023-07-31T05:25:32;15.82;;;14.00;;
20910;SDS011;10615;42.702;23.314;2023-07-31T05:26:32;15.05;;;13.10;;
20910;SDS011;10615;42.702;23.314;2023-07-31T05:27:33;14.57;;;13.27;;
20910;SDS011;10615;42.702;23.314;2023-07-31T05:28:34;14.88;;;13.60;;
20910;SDS011;10615;42.702;23.314;2023-07-31T05:29:35;14.65;;;13.35;;
20910;SDS011;10615;42.702;23.314;2023-07-31T05:30:36;14.50;;;12.95;;
20910;SDS011;10615;42.702;23.314;2023-07-31T05:31:38;12.63;;;11.32;;
20910;SDS011;10615;42.702;23.314;2023-07-31T05:32:38;12.48;;;11.18;;
20910;SDS011;10615;42.702;23.314;2023-07-31T05:33:39;12.05;;;11.02;;
20910;SDS011;10615;42.702;23.314;2023-07-31T05:34:40;13.07;;;11.77;;
20910;SDS011;10615;42.702;23.314;2023-07-31T05:35:40;13.40;;;11.63;;
20910;SDS011;10615;42.702;23.314;2023-07-31T05:36:41;13.30;;;11.93;;
20910;SDS011;10615;42.702;23.314;2023-07-31T05:37:42;11.20;;;10.18;;
20910;SDS011;10615;42.702;23.314;2023-07-31T05:38:42;12.75;;;11.15;;
20910;SDS011;10615;42.702;23.314;2023-07-31T05:39:44;13.35;;;10.70;;
20910;SDS011;10615;42.702;23.314;2023-07-31T05:40:45;11.05;;;9.52;;
20910;SDS011;10615;42.702;23.314;2023-07-31T05:41:46;11.15;;;10.00;;
20910;SDS011;10615;42.702;23.314;2023-07-31T05:42:47;12.98;;;9.10;;
20910;SDS011;10615;42.702;23.314;2023-07-31T05:43:48;10.65;;;9.30;;
20910;SDS011;10615;42.702;23.314;2023-07-31T05:44:49;10.30;;;9.38;;
20910;SDS011;10615;42.702;23.314;2023-07-31T05:45:50;10.35;;;9.45;;
20910;SDS011;10615;42.702;23.314;2023-07-31T05:46:51;15.48;;;9.45;;
20910;SDS011;10615;42.702;23.314;2023-07-31T05:47:52;9.98;;;9.18;;
20910;SDS011;10615;42.702;23.314;2023-07-31T05:48:52;9.55;;;8.63;;
20910;SDS011;10615;42.702;23.314;2023-07-31T05:49:53;10.05;;;9.00;;
20910;SDS011;10615;42.702;23.314;2023-07-31T05:50:54;9.18;;;8.27;;
20910;SDS011;10615;42.702;23.314;2023-07-31T05:51:54;10.50;;;9.50;;
20910;SDS011;10615;42.702;23.314;2023-07-31T05:52:55;9.48;;;8.68;;
20910;SDS011;10615;42.702;23.314;2023-07-31T05:53:56;12.75;;;8.75;;
20910;SDS011;10615;42.702;23.314;2023-07-31T05:54:56;10.48;;;8.30;;
20910;SDS011;10615;42.702;23.314;2023-07-31T05:55:57;9.10;;;8.15;;
20910;SDS011;10615;42.702;23.314;2023-07-31T05:56:58;11.82;;;7.85;;
20910;SDS011;10615;42.702;23.314;2023-07-31T05:57:58;9.93;;;7.50;;
20910;SDS011;10615;42.702;23.314;2023-07-31T05:58:59;8.32;;;7.55;;
20910;SDS011;10615;42.702;23.314;2023-07-31T06:00:01;8.27;;;7.55;;
20910;SDS011;10615;42.702;23.314;2023-07-31T06:01:01;7.85;;;7.15;;
20910;SDS011;10615;42.702;23.314;2023-07-31T06:02:02;8.13;;;7.32;;
20910;SDS011;10615;42.702;23.314;2023-07-31T06:03:03;8.27;;;7.55;;